Terminal Aerodrome Forecast
Issued by NWS

Home | Current Version | Previous Version | Text Only | Print | Product List | Glossary On
Versions: 1 2 3 4 5 6 7 8 9 10 11 12 13 14 15 16 17 18 19 20 21 22 23 24 25 26 27 28 29 30 31 32
000
FTUS44 KSJT 050500
TAFBBD
TAF
KBBD 050532Z 0506/0606 01015KT P6SM -FZRAPL OVC012
      TEMPO 0506/0507 4SM -FZRAPL BR OVC007
     FM050700 36016KT P6SM -PL OVC012
     FM051000 01015KT P6SM OVC015
     FM051500 02014KT P6SM SCT050=

USA.gov is the U.S. government's official web portal to all federal, state and local government web resources and services.